Time;durP1;ratioP1;P1;durP2;ratioP2;P2;SDS_P1;SDS_P2;PMS_P1;PMS_P2;Temp;Humidity;BMP_temperature;BMP_pressure;BME280_temperature;BME280_humidity;BME280_pressure;Samples;Min_cycle;Max_cycle;Signal;HPM_P1;HPM_P2
2022/01/05 00:03:38;;;;;;;14.38;10.15;;;;;;;5.86;87.63;96942.70;2099764;83;21955;-81
2022/01/05 00:06:38;;;;;;;13.50;10.77;;;;;;;5.80;87.87;96955.64;2149025;83;21002;-81
2022/01/05 00:09:39;;;;;;;12.10;10.00;;;;;;;5.73;88.01;96940.11;2142806;83;21019;-81
2022/01/05 00:12:39;;;;;;;13.57;10.20;;;;;;;5.68;88.22;96943.13;2141288;81;21427;-82
2022/01/05 00:15:40;;;;;;;17.37;12.87;;;;;;;5.64;88.23;96940.11;2184426;81;21328;-80
2022/01/05 00:18:40;;;;;;;15.20;12.10;;;;;;;5.62;88.26;96948.30;2183029;81;21368;-80
2022/01/05 00:21:41;;;;;;;12.83;9.87;;;;;;;5.59;88.40;96967.70;2163595;81;21378;-80
2022/01/05 00:24:41;;;;;;;21.43;12.17;;;;;;;5.58;88.53;96977.63;2170110;81;20987;-78
2022/01/05 00:27:42;;;;;;;14.80;11.80;;;;;;;5.60;88.68;96982.81;2185432;81;20992;-80
2022/01/05 00:30:42;;;;;;;17.70;12.30;;;;;;;5.64;88.74;96987.12;2165978;81;20999;-78
2022/01/05 00:33:43;;;;;;;44.60;34.20;;;;;;;5.66;88.78;96988.86;2162975;81;21024;-81
2022/01/05 00:36:43;;;;;;;114.87;84.10;;;;;;;5.98;97.16;96997.12;2188272;81;21046;-83
2022/01/05 00:39:44;;;;;;;20.53;15.33;;;;;;;8.18;100.00;96987.67;2174802;81;21006;-82
2022/01/05 00:42:44;;;;;;;12.13;9.73;;;;;;;8.78;84.47;96990.63;2187916;81;21359;-81
2022/01/05 00:45:45;;;;;;;10.50;9.10;;;;;;;7.88;82.82;96992.67;2170196;81;21054;-81
2022/01/05 00:48:45;;;;;;;58.70;44.07;;;;;;;7.18;82.63;96989.16;2189431;81;21026;-83
2022/01/05 00:51:45;;;;;;;104.60;81.07;;;;;;;6.79;89.21;96979.76;2165938;81;20983;-83
2022/01/05 00:54:46;;;;;;;74.87;59.63;;;;;;;8.69;100.00;96976.86;2168443;81;20995;-81
2022/01/05 00:57:47;;;;;;;15.53;11.23;;;;;;;10.57;90.72;96969.93;2181842;81;20999;-82
2022/01/05 01:00:47;;;;;;;11.07;8.83;;;;;;;10.08;78.22;96971.56;2176910;81;21001;-82
2022/01/05 01:03:48;;;;;;;12.37;9.53;;;;;;;8.90;76.75;96978.79;2178451;81;21038;-82
2022/01/05 01:06:48;;;;;;;13.10;9.47;;;;;;;7.95;77.73;96993.48;2173759;81;21029;-79
2022/01/05 01:09:49;;;;;;;9.07;8.13;;;;;;;7.34;79.11;96999.03;2154164;81;21089;-81
2022/01/05 01:12:49;;;;;;;7.90;6.90;;;;;;;6.91;79.78;96991.39;2170077;81;21007;-81
2022/01/05 01:15:50;;;;;;;10.60;7.67;;;;;;;6.59;80.84;96988.02;2164938;81;21384;-84
2022/01/05 01:18:51;;;;;;;12.90;9.17;;;;;;;6.38;81.61;96998.00;2183385;81;21433;-81
2022/01/05 01:21:52;;;;;;;12.73;8.60;;;;;;;6.18;82.33;96998.02;2169781;81;21404;-82
2022/01/05 01:24:55;;;;;;;12.23;9.95;;;;;;;6.01;82.85;96989.34;2175169;81;21059;-81
2022/01/05 01:27:56;;;;;;;12.97;10.03;;;;;;;5.93;83.32;96993.66;2165685;81;21137;-83
2022/01/05 01:30:56;;;;;;;11.77;9.40;;;;;;;5.84;83.66;96992.33;2186383;81;21047;-82
2022/01/05 01:33:57;;;;;;;13.03;9.33;;;;;;;5.76;84.04;96986.71;2155280;81;21057;-82
2022/01/05 01:36:57;;;;;;;13.70;10.53;;;;;;;5.69;84.36;96988.00;2177339;81;21007;-81
2022/01/05 01:39:58;;;;;;;15.00;10.53;;;;;;;5.63;84.63;96992.73;2167810;81;21042;-82
2022/01/05 01:42:58;;;;;;;13.80;12.20;;;;;;;5.56;84.93;97003.08;2180317;81;21000;-83
2022/01/05 01:45:59;;;;;;;15.00;10.60;;;;;;;5.53;85.33;96997.89;2190904;81;21018;-82
2022/01/05 01:48:59;;;;;;;14.40;10.33;;;;;;;5.49;85.73;96993.57;2180861;81;21397;-83
2022/01/05 01:51:59;;;;;;;13.03;10.07;;;;;;;5.44;85.80;96986.66;2182053;81;20971;-82
2022/01/05 01:55:00;;;;;;;78.37;59.07;;;;;;;5.40;86.40;96989.23;2155376;81;20999;-81
2022/01/05 01:58:00;;;;;;;36.87;29.80;;;;;;;7.62;100.00;96983.72;2184381;81;21082;-83
2022/01/05 02:01:01;;;;;;;11.93;9.53;;;;;;;10.17;86.98;96983.59;2164399;81;20990;-82
2022/01/05 02:04:01;;;;;;;10.83;7.77;;;;;;;8.98;77.33;96967.44;2171306;81;21030;-82
2022/01/05 02:07:02;;;;;;;12.80;8.10;;;;;;;7.79;78.50;96999.20;2190928;81;21046;-82
2022/01/05 02:10:02;;;;;;;10.40;8.57;;;;;;;7.05;79.63;97006.94;2187634;81;21052;-82
2022/01/05 02:13:03;;;;;;;12.60;9.47;;;;;;;6.54;81.08;97020.87;2187759;81;21004;-82
2022/01/05 02:16:03;;;;;;;13.93;9.80;;;;;;;6.23;82.15;97023.48;2188117;81;21022;-82
2022/01/05 02:19:04;;;;;;;15.60;9.97;;;;;;;6.04;83.13;97032.95;2172467;81;21010;-85
2022/01/05 02:22:04;;;;;;;12.90;9.83;;;;;;;5.85;83.53;97041.95;2173394;81;21358;-82
2022/01/05 02:25:05;;;;;;;10.53;9.30;;;;;;;5.75;84.19;97047.12;2182385;81;21320;-82
2022/01/05 02:28:05;;;;;;;15.07;9.97;;;;;;;5.64;85.05;97040.19;2164793;81;21386;-82
2022/01/05 02:31:06;;;;;;;12.53;9.83;;;;;;;5.56;84.80;97034.13;2171124;81;21031;-81
2022/01/05 02:34:08;;;;;;;11.97;9.77;;;;;;;5.47;85.20;97041.87;2154287;81;21336;-82
2022/01/05 02:37:09;;;;;;;12.70;9.93;;;;;;;5.42;85.41;97040.56;2168014;81;21019;-82
2022/01/05 02:40:09;;;;;;;12.60;9.73;;;;;;;5.36;85.54;97035.37;2183592;81;20975;-81
2022/01/05 02:43:10;;;;;;;12.87;9.60;;;;;;;5.35;85.89;97047.44;2164208;81;20994;-82
2022/01/05 02:46:11;;;;;;;16.63;11.00;;;;;;;5.30;85.80;97058.63;2169584;81;21430;-82
2022/01/05 02:49:11;;;;;;;16.50;10.03;;;;;;;5.26;86.03;97066.80;2190222;81;21058;-82
2022/01/05 02:52:13;;;;;;;13.97;8.23;;;;;;;5.24;86.29;97065.07;2169501;81;21399;-82
2022/01/05 02:55:13;;;;;;;10.93;8.63;;;;;;;5.21;86.37;97067.64;2176130;81;21102;-82
2022/01/05 02:58:14;;;;;;;11.43;8.40;;;;;;;5.18;86.59;97075.36;2164008;81;21053;-82
2022/01/05 03:01:14;;;;;;;10.00;7.43;;;;;;;5.17;86.79;97080.96;2167814;81;21434;-81
2022/01/05 03:04:15;;;;;;;9.07;7.37;;;;;;;5.21;86.77;97074.98;2185031;81;21010;-82
2022/01/05 03:07:16;;;;;;;9.27;7.93;;;;;;;5.26;86.74;97062.92;2189274;81;21059;-82
2022/01/05 03:10:17;;;;;;;8.73;6.20;;;;;;;5.33;86.71;97058.64;2170432;81;21063;-82
2022/01/05 03:13:17;;;;;;;9.93;5.77;;;;;;;5.39;86.55;97052.20;2183511;81;20976;-82
2022/01/05 03:16:18;;;;;;;7.17;6.03;;;;;;;5.42;86.31;97054.36;2188857;81;21038;-83
2022/01/05 03:19:18;;;;;;;8.67;6.50;;;;;;;5.44;86.33;97047.90;2182288;81;21051;-83
2022/01/05 03:22:19;;;;;;;8.40;6.77;;;;;;;5.50;86.27;97061.28;2165025;81;21002;-83
2022/01/05 03:25:20;;;;;;;10.50;7.97;;;;;;;5.53;86.03;97065.18;2159735;81;21363;-81
2022/01/05 03:28:20;;;;;;;10.73;7.80;;;;;;;5.56;85.97;97061.30;2174205;81;21040;-82
2022/01/05 03:31:21;;;;;;;9.67;8.10;;;;;;;5.61;86.00;97067.36;2178024;81;21038;-83
2022/01/05 03:34:21;;;;;;;12.27;9.20;;;;;;;5.65;85.80;97062.20;2182761;81;21006;-83
2022/01/05 03:37:22;;;;;;;13.63;9.50;;;;;;;5.63;85.60;97054.86;2175170;81;21427;-82
2022/01/05 03:40:22;;;;;;;15.63;9.27;;;;;;;5.61;85.54;97055.28;2165734;81;21351;-83
2022/01/05 03:43:23;;;;;;;14.97;9.07;;;;;;;5.59;85.50;97048.38;2163732;81;21375;-82
2022/01/05 03:46:23;;;;;;;9.77;8.00;;;;;;;5.59;85.67;97042.77;2162944;81;21037;-81
2022/01/05 03:49:24;;;;;;;14.40;9.17;;;;;;;5.56;85.54;97044.05;2166026;81;20996;-83
2022/01/05 03:52:24;;;;;;;15.27;9.73;;;;;;;5.54;85.49;97032.83;2165004;81;21046;-83
2022/01/05 03:55:25;;;;;;;14.07;8.93;;;;;;;5.49;85.53;97035.84;2172704;81;21052;-83
2022/01/05 03:58:25;;;;;;;13.47;9.07;;;;;;;5.47;85.56;97041.44;2158737;81;21111;-83
2022/01/05 04:01:26;;;;;;;13.73;9.20;;;;;;;5.44;85.50;97028.49;2189160;81;21048;-83
2022/01/05 04:04:26;;;;;;;12.60;9.03;;;;;;;5.42;85.51;97025.90;2184044;81;21034;-82
2022/01/05 04:07:27;;;;;;;11.97;8.23;;;;;;;5.41;85.61;97034.95;2181262;81;21054;-83
2022/01/05 04:10:28;;;;;;;12.07;8.70;;;;;;;5.38;85.70;97037.09;2187385;81;20990;-82
2022/01/05 04:13:28;;;;;;;17.47;9.70;;;;;;;5.36;85.73;97045.72;2173935;81;21434;-82
2022/01/05 04:16:28;;;;;;;16.77;9.60;;;;;;;5.34;85.65;97056.06;2183864;81;21335;-82
2022/01/05 04:19:29;;;;;;;17.03;9.37;;;;;;;5.33;85.71;97056.92;2185535;81;21023;-83
2022/01/05 04:22:29;;;;;;;13.77;9.37;;;;;;;5.33;85.77;97076.33;2154998;81;21041;-82
2022/01/05 04:25:31;;;;;;;13.10;8.57;;;;;;;5.33;85.70;97079.34;2170941;81;21031;-82
2022/01/05 04:28:32;;;;;;;13.13;9.27;;;;;;;5.32;85.58;97078.47;2175785;81;21451;-83
2022/01/05 04:31:32;;;;;;;14.33;9.57;;;;;;;5.33;85.76;97079.34;2182500;81;20987;-81
2022/01/05 04:34:33;;;;;;;15.47;9.50;;;;;;;5.38;85.64;97075.05;2174209;81;21439;-82
2022/01/05 04:37:33;;;;;;;15.13;9.33;;;;;;;5.40;85.35;97075.48;2188116;81;20988;-83
2022/01/05 04:40:34;;;;;;;14.73;9.90;;;;;;;5.41;85.21;97074.63;2177201;81;21027;-82
2022/01/05 04:43:35;;;;;;;13.83;9.60;;;;;;;5.40;85.07;97078.08;2169103;81;21387;-82
2022/01/05 04:46:35;;;;;;;15.50;9.70;;;;;;;5.39;85.11;97085.41;2168536;81;21023;-82
2022/01/05 04:49:36;;;;;;;17.50;10.67;;;;;;;5.39;85.08;97087.99;2167920;81;20984;-82
2022/01/05 04:52:36;;;;;;;19.50;11.67;;;;;;;5.39;84.85;97091.01;2170711;81;21042;-82
2022/01/05 04:55:37;;;;;;;16.17;10.77;;;;;;;5.38;85.00;97093.16;2175843;81;21359;-82
2022/01/05 04:58:37;;;;;;;14.70;9.73;;;;;;;5.37;85.06;97095.31;2161213;81;21047;-81
2022/01/05 05:01:38;;;;;;;16.17;10.13;;;;;;;5.37;85.16;97106.52;2184708;81;20984;-81
2022/01/05 05:04:39;;;;;;;13.67;9.67;;;;;;;5.38;85.19;97116.45;2187365;81;21433;-82
2022/01/05 05:07:39;;;;;;;12.33;8.70;;;;;;;5.37;85.20;97112.99;2179969;81;20991;-82
2022/01/05 05:10:40;;;;;;;13.10;8.47;;;;;;;5.33;85.18;97103.91;2174970;81;21075;-83
2022/01/05 05:13:40;;;;;;;12.47;8.90;;;;;;;5.33;85.33;97105.21;2176976;81;21046;-81
2022/01/05 05:16:41;;;;;;;19.70;9.40;;;;;;;5.29;85.13;97092.69;2189917;81;21013;-83
2022/01/05 05:19:41;;;;;;;15.37;8.37;;;;;;;5.26;85.29;97077.16;2183614;81;21052;-82
2022/01/05 05:22:42;;;;;;;11.07;7.10;;;;;;;5.29;87.11;97072.42;2175262;81;21055;-82
2022/01/05 05:25:42;;;;;;;10.67;7.83;;;;;;;5.81;85.99;97086.40;2158215;81;20984;-82
2022/01/05 05:28:43;;;;;;;11.87;8.67;;;;;;;5.64;84.61;97094.12;2174243;81;21034;-82
2022/01/05 05:31:43;;;;;;;10.93;7.97;;;;;;;5.53;84.83;97085.45;2159371;81;21049;-82
2022/01/05 05:34:44;;;;;;;10.80;7.07;;;;;;;5.49;84.80;97081.13;2157393;81;21384;-81
2022/01/05 05:37:44;;;;;;;12.93;7.47;;;;;;;5.47;84.73;97083.27;2156940;81;21042;-82
2022/01/05 05:40:45;;;;;;;11.33;6.97;;;;;;;5.44;84.79;97067.30;2162604;81;21018;-82
2022/01/05 05:43:48;;;;;;;8.90;6.33;;;;;;;5.41;84.84;97068.59;2162188;81;21379;-83
2022/01/05 05:46:48;;;;;;;8.83;6.60;;;;;;;5.41;84.91;97065.57;2185749;81;21484;-83
2022/01/05 05:49:48;;;;;;;11.40;6.90;;;;;;;5.41;84.96;97061.69;2183061;81;21008;-80
2022/01/05 05:52:49;;;;;;;10.13;7.43;;;;;;;6.05;97.17;97059.28;2168892;81;21082;-82
2022/01/05 05:55:50;;;;;;;9.33;7.00;;;;;;;8.94;92.13;97076.76;2152763;81;21112;-80
2022/01/05 05:58:50;;;;;;;8.20;6.33;;;;;;;8.42;81.89;97066.36;2152450;81;21010;-81
2022/01/05 06:01:51;;;;;;;14.10;6.87;;;;;;;7.75;80.71;97085.80;2172105;81;21022;-81
2022/01/05 06:04:51;;;;;;;10.10;6.87;;;;;;;7.21;80.32;97092.94;2173062;81;21030;-80
2022/01/05 06:07:52;;;;;;;9.30;7.53;;;;;;;6.85;80.70;97096.45;2177727;81;21002;-80
2022/01/05 06:10:52;;;;;;;12.80;7.03;;;;;;;6.59;80.97;97100.80;2175130;81;21414;-80
2022/01/05 06:13:54;;;;;;;11.60;7.40;;;;;;;6.36;81.29;97102.95;2165997;81;21652;-80
2022/01/05 06:16:55;;;;;;;11.73;7.30;;;;;;;6.16;81.48;97096.89;2157401;81;20983;-79
2022/01/05 06:19:55;;;;;;;12.37;7.77;;;;;;;6.02;81.92;97094.67;2168801;81;21333;-79
2022/01/05 06:22:56;;;;;;;8.80;6.60;;;;;;;5.95;82.31;97107.17;2159176;81;20998;-80
2022/01/05 06:25:56;;;;;;;9.33;6.10;;;;;;;5.86;82.39;97109.28;2180876;81;21011;-80
2022/01/05 06:28:56;;;;;;;8.20;6.20;;;;;;;5.80;82.62;97119.63;2183149;81;21006;-80
2022/01/05 06:31:57;;;;;;;5.93;5.30;;;;;;;5.77;82.86;97136.44;2189896;81;21011;-80
2022/01/05 06:34:57;;;;;;;6.93;5.40;;;;;;;5.76;82.77;97142.05;2163253;81;21029;-80
2022/01/05 06:37:58;;;;;;;7.97;5.53;;;;;;;5.75;83.10;97141.62;2177069;81;20999;-80
2022/01/05 06:40:58;;;;;;;9.93;6.30;;;;;;;5.73;82.91;97138.16;2187792;81;21402;-80
2022/01/05 06:43:59;;;;;;;6.37;5.23;;;;;;;5.73;83.11;97130.39;2163995;81;21383;-79
2022/01/05 06:47:00;;;;;;;8.27;6.53;;;;;;;5.74;83.14;97126.94;2169740;81;21003;-79
2022/01/05 06:50:00;;;;;;;10.67;6.77;;;;;;;5.74;83.20;97128.23;2188129;81;20980;-79
2022/01/05 06:53:02;;;;;;;10.03;6.93;;;;;;;5.77;83.37;97131.27;2178997;81;21002;-79
2022/01/05 06:56:03;;;;;;;13.03;8.00;;;;;;;5.79;83.35;97131.27;2163042;81;21102;-79
2022/01/05 06:59:03;;;;;;;9.67;7.40;;;;;;;5.79;83.32;97129.98;2166841;81;21006;-79
2022/01/05 07:02:04;;;;;;;8.17;6.37;;;;;;;5.82;83.40;97129.55;2180120;81;21015;-79
2022/01/05 07:05:05;;;;;;;7.63;6.50;;;;;;;5.82;83.29;97137.75;2157437;81;20995;-80
2022/01/05 07:08:05;;;;;;;7.43;6.57;;;;;;;5.82;83.41;97125.67;2186966;81;20971;-79
2022/01/05 07:11:06;;;;;;;8.77;7.10;;;;;;;5.86;83.47;97120.07;2187005;81;21032;-79
2022/01/05 07:14:06;;;;;;;12.20;8.57;;;;;;;5.89;83.34;97113.61;2153244;81;20995;-79
2022/01/05 07:17:07;;;;;;;9.47;8.07;;;;;;;5.92;83.30;97118.83;2167282;81;20992;-79
2022/01/05 07:20:07;;;;;;;9.30;7.33;;;;;;;5.94;83.27;97117.10;2177475;81;21046;-80
2022/01/05 07:23:09;;;;;;;8.80;6.93;;;;;;;5.95;83.21;97122.72;2170860;81;20986;-79
2022/01/05 07:26:09;;;;;;;8.03;6.60;;;;;;;5.96;83.28;97132.22;2159896;81;21019;-80
2022/01/05 07:29:10;;;;;;;10.13;7.67;;;;;;;5.97;83.18;97146.89;2166019;81;21002;-80
2022/01/05 07:32:10;;;;;;;10.43;7.63;;;;;;;5.94;83.11;97138.69;2156010;81;20970;-79
2022/01/05 07:35:11;;;;;;;8.70;6.80;;;;;;;5.95;83.23;97136.96;2158866;81;21026;-79
2022/01/05 07:38:12;;;;;;;10.90;7.70;;;;;;;5.95;83.09;97126.60;2178936;81;20991;-80
2022/01/05 07:41:12;;;;;;;9.77;7.87;;;;;;;5.95;83.25;97131.78;2189639;81;20944;-79
2022/01/05 07:44:12;;;;;;;9.90;7.60;;;;;;;5.96;83.29;97125.74;2169020;81;20983;-80
2022/01/05 07:47:13;;;;;;;8.87;7.73;;;;;;;5.97;83.28;97121.00;2184943;81;20991;-79
2022/01/05 07:50:16;;;;;;;8.87;7.17;;;;;;;5.97;83.27;97118.41;2165106;81;21011;-80
2022/01/05 07:53:17;;;;;;;9.80;7.57;;;;;;;5.97;83.21;97125.75;2160850;81;21038;-80
2022/01/05 07:56:17;;;;;;;11.10;7.93;;;;;;;5.98;83.30;97117.55;2177712;81;21372;-79
2022/01/05 07:59:18;;;;;;;11.70;7.83;;;;;;;5.97;83.12;97119.27;2184707;81;21411;-81
2022/01/05 08:02:18;;;;;;;12.73;8.63;;;;;;;6.00;83.37;97110.64;2185209;81;21363;-79
2022/01/05 08:05:19;;;;;;;9.10;7.33;;;;;;;5.98;83.43;97115.82;2189869;81;20968;-80
2022/01/05 08:08:20;;;;;;;10.77;8.73;;;;;;;6.02;83.41;97107.20;2184882;81;21050;-79
2022/01/05 08:11:20;;;;;;;13.03;8.83;;;;;;;6.01;83.38;97111.08;2161934;81;21973;-78
2022/01/05 08:14:21;;;;;;;16.23;9.87;;;;;;;6.04;83.60;97108.49;2152071;81;21039;-80
2022/01/05 08:17:21;;;;;;;14.60;9.07;;;;;;;6.10;83.57;97111.13;2175609;81;21030;-78
2022/01/05 08:20:22;;;;;;;15.40;9.67;;;;;;;6.14;83.66;97106.38;2166112;81;21062;-79
2022/01/05 08:23:22;;;;;;;16.40;10.70;;;;;;;6.15;83.39;97114.59;2169025;81;20991;-79
2022/01/05 08:26:23;;;;;;;35.43;18.20;;;;;;;6.16;83.53;97105.95;2189455;81;21442;-79
2022/01/05 08:29:24;;;;;;;41.60;21.80;;;;;;;6.17;83.63;97107.69;2188345;81;21352;-79
2022/01/05 08:32:24;;;;;;;32.33;19.07;;;;;;;6.20;83.68;97114.16;2182826;81;21344;-80
2022/01/05 08:35:26;;;;;;;71.37;31.80;;;;;;;6.18;83.56;97109.41;2177066;81;21380;-79
2022/01/05 08:38:27;;;;;;;36.27;19.33;;;;;;;6.17;83.54;97108.98;2178262;81;21508;-80
2022/01/05 08:41:27;;;;;;;18.40;11.60;;;;;;;6.15;83.40;97110.70;2174304;81;21007;-79
2022/01/05 08:44:28;;;;;;;19.80;11.37;;;;;;;6.14;83.28;97114.16;2165650;81;20998;-80
2022/01/05 08:47:28;;;;;;;19.43;11.70;;;;;;;6.13;83.29;97108.97;2151900;81;21015;-80
2022/01/05 08:50:29;;;;;;;17.83;10.93;;;;;;;6.09;83.42;97106.81;2156320;81;20975;-79
2022/01/05 08:53:29;;;;;;;16.00;11.80;;;;;;;6.09;83.38;97115.88;2183006;81;21015;-80
2022/01/05 08:56:30;;;;;;;19.97;13.20;;;;;;;6.11;83.50;97119.77;2168858;81;21051;-80
2022/01/05 08:59:30;;;;;;;19.13;12.53;;;;;;;6.12;83.57;97116.31;2168314;81;20982;-80
2022/01/05 09:02:31;;;;;;;17.40;12.77;;;;;;;6.12;83.70;97117.17;2158596;81;21003;-80
2022/01/05 09:05:31;;;;;;;33.80;18.57;;;;;;;6.14;83.57;97113.29;2185368;81;21022;-80
2022/01/05 09:08:32;;;;;;;63.53;29.90;;;;;;;6.14;83.62;97108.98;2177714;81;20972;-79
2022/01/05 09:11:32;;;;;;;36.40;19.77;;;;;;;6.21;83.79;97122.80;2169984;81;21022;-78
2022/01/05 09:14:33;;;;;;;49.20;25.53;;;;;;;6.25;83.78;97125.40;2163803;81;21000;-80
2022/01/05 09:17:43;;;;;;;33.43;21.33;;;;;;;6.29;83.61;97128.42;2186408;81;21118;-80
2022/01/05 09:20:44;;;;;;;64.57;34.80;;;;;;;6.31;83.56;97128.43;2177506;81;21150;-80
2022/01/05 09:23:50;;;;;;;81.77;46.73;;;;;;;6.35;83.65;97124.98;2162229;81;21015;-80
2022/01/05 09:26:49;;;;;;;45.63;27.57;;;;;;;6.39;83.86;97114.62;2152565;81;20971;-81
2022/01/05 09:29:50;;;;;;;31.73;19.70;;;;;;;6.45;83.66;97124.12;2187044;81;21007;-80
2022/01/05 09:32:51;;;;;;;29.30;17.10;;;;;;;6.48;83.57;97123.26;2173383;81;21022;-80
2022/01/05 09:36:01;;;;;;;26.03;16.00;;;;;;;6.56;83.50;97116.34;2185554;81;21434;-80
2022/01/05 09:42:14;;;;;;;23.90;15.10;;;;;;;6.67;83.10;97119.80;2156699;81;21059;-79
2022/01/05 09:45:14;;;;;;;28.07;15.93;;;;;;;6.67;83.10;97119.80;2178885;81;21339;-79
2022/01/05 09:48:14;;;;;;;22.53;15.93;;;;;;;6.72;83.15;97123.25;2185788;81;21031;-80
2022/01/05 09:51:15;;;;;;;19.33;15.43;;;;;;;6.78;83.13;97116.77;2165029;81;20971;-80
2022/01/05 09:54:15;;;;;;;24.10;15.10;;;;;;;6.81;82.95;97114.61;2152287;81;21029;-79
2022/01/05 09:57:18;;;;;;;24.00;16.07;;;;;;;6.81;83.04;97116.77;2164642;81;21019;-79
2022/01/05 10:00:18;;;;;;;27.77;17.33;;;;;;;6.81;82.76;97123.25;2173077;81;21141;-79
2022/01/05 10:03:19;;;;;;;25.43;17.97;;;;;;;6.76;82.71;97128.88;2188903;81;21007;-80
2022/01/05 10:06:19;;;;;;;27.40;18.90;;;;;;;6.66;82.75;97121.96;2184389;81;21038;-79
2022/01/05 10:09:20;;;;;;;28.37;19.23;;;;;;;6.64;83.03;97114.62;2176582;81;20979;-80
2022/01/05 10:12:20;;;;;;;23.83;17.33;;;;;;;6.64;83.03;97117.20;2182468;81;20979;-79
2022/01/05 10:15:21;;;;;;;27.00;19.37;;;;;;;6.62;82.91;97113.32;2153422;81;20972;-80
2022/01/05 10:18:22;;;;;;;25.00;18.40;;;;;;;6.64;83.16;97113.32;2170820;81;21366;-80
2022/01/05 10:21:22;;;;;;;26.30;17.67;;;;;;;6.75;83.24;97110.72;2156871;81;20979;-80
2022/01/05 10:24:23;;;;;;;25.07;18.07;;;;;;;6.75;82.90;97110.29;2162102;81;21324;-80
2022/01/05 10:27:23;;;;;;;23.27;16.13;;;;;;;6.69;83.13;97128.02;2170178;81;21014;-80
2022/01/05 10:30:24;;;;;;;28.47;18.17;;;;;;;6.61;83.40;97128.45;2166506;81;21049;-79
2022/01/05 10:33:24;;;;;;;21.50;15.07;;;;;;;6.60;83.51;97127.15;2177935;81;20971;-81
2022/01/05 10:36:25;;;;;;;24.03;17.97;;;;;;;6.59;83.64;97122.40;2184058;81;20976;-80
2022/01/05 10:39:25;;;;;;;23.27;16.90;;;;;;;6.65;83.70;97121.53;2179039;81;21430;-81
2022/01/05 10:42:26;;;;;;;19.93;15.43;;;;;;;6.76;83.69;97117.64;2178095;81;21007;-80
2022/01/05 10:45:26;;;;;;;20.93;14.57;;;;;;;6.82;83.40;97109.42;2170419;81;20986;-80
2022/01/05 10:48:27;;;;;;;21.17;13.87;;;;;;;6.86;83.19;97103.80;2175809;81;20971;-79
2022/01/05 10:51:27;;;;;;;19.00;12.73;;;;;;;6.83;82.88;97100.77;2166314;81;21347;-81
2022/01/05 10:54:28;;;;;;;18.97;12.87;;;;;;;6.86;82.95;97111.58;2184775;81;21050;-79
2022/01/05 10:57:28;;;;;;;15.87;12.27;;;;;;;6.86;82.80;97117.63;2169093;81;21043;-82
2022/01/05 11:00:29;;;;;;;16.60;11.30;;;;;;;6.87;83.00;97123.67;2184182;81;20988;-83
2022/01/05 11:03:35;;;;;;;14.80;11.40;;;;;;;6.90;82.76;97115.89;2182634;81;21047;-81
2022/01/05 11:06:31;;;;;;;15.70;11.13;;;;;;;6.92;82.59;97094.27;2188015;81;21008;-82
2022/01/05 11:09:32;;;;;;;18.00;12.37;;;;;;;6.94;82.47;97109.87;2155612;81;21018;-83
2022/01/05 11:12:32;;;;;;;15.53;11.43;;;;;;;6.91;82.64;97112.43;2160616;81;21039;-83
2022/01/05 11:15:33;;;;;;;21.00;15.40;;;;;;;6.83;82.41;97096.87;2171166;81;20971;-81
2022/01/05 11:18:36;;;;;;;28.50;21.90;;;;;;;6.85;82.67;97107.25;2153157;81;21022;-80
2022/01/05 11:21:37;;;;;;;17.60;14.17;;;;;;;6.83;82.96;97091.70;2157630;81;21074;-82
2022/01/05 11:24:37;;;;;;;21.00;14.70;;;;;;;6.83;82.56;97098.18;2183635;81;20980;-82
2022/01/05 11:27:38;;;;;;;16.83;11.73;;;;;;;6.78;82.59;97090.84;2161989;81;21001;-80
2022/01/05 11:30:39;;;;;;;16.37;10.67;;;;;;;6.77;82.58;97085.22;2174655;81;21512;-82
2022/01/05 11:33:40;;;;;;;13.63;10.03;;;;;;;6.79;82.39;97077.00;2171716;81;21051;-83
2022/01/05 11:36:40;;;;;;;12.70;9.67;;;;;;;6.83;82.41;97087.80;2169804;81;21047;-82
2022/01/05 11:39:40;;;;;;;14.03;9.93;;;;;;;6.82;82.03;97091.70;2184546;81;21020;-82
2022/01/05 11:42:41;;;;;;;15.87;10.30;;;;;;;6.80;81.84;97082.63;2188677;81;21032;-82
2022/01/05 11:45:46;;;;;;;12.37;8.73;;;;;;;6.82;82.00;97075.70;2167162;81;20979;-81
2022/01/05 11:48:44;;;;;;;16.57;10.07;;;;;;;6.85;81.57;97083.48;2170615;81;21019;-81
2022/01/05 11:51:48;;;;;;;13.13;9.30;;;;;;;6.80;81.18;97080.03;2169563;81;21015;-81
2022/01/05 11:54:47;;;;;;;13.80;10.00;;;;;;;6.78;81.63;97063.61;2173805;81;21067;-81
2022/01/05 11:57:47;;;;;;;13.00;8.67;;;;;;;6.78;81.63;97063.61;2167729;81;21051;-81
2022/01/05 12:00:48;;;;;;;11.63;8.40;;;;;;;6.81;81.35;97064.90;2187851;81;21030;-81
2022/01/05 12:03:48;;;;;;;11.33;7.87;;;;;;;6.79;81.26;97078.73;2175737;81;21012;-81
2022/01/05 12:06:49;;;;;;;10.63;8.67;;;;;;;6.77;81.18;97068.80;2179028;81;21408;-81
2022/01/05 12:09:49;;;;;;;13.93;9.83;;;;;;;6.74;81.35;97060.59;2153359;81;21001;-82
2022/01/05 12:12:50;;;;;;;11.47;8.47;;;;;;;6.76;81.41;97061.45;2170419;81;21002;-83
2022/01/05 12:15:52;;;;;;;12.83;8.47;;;;;;;6.76;81.48;97061.88;2176728;81;21179;-81
2022/01/05 12:18:52;;;;;;;15.57;9.37;;;;;;;6.69;81.17;97063.62;2180020;81;20983;-82
2022/01/05 12:21:53;;;;;;;9.77;7.60;;;;;;;6.73;81.86;97069.23;2175149;81;20988;-83
2022/01/05 12:24:54;;;;;;;15.90;8.90;;;;;;;6.78;81.62;97070.52;2182499;81;21412;-83
2022/01/05 12:27:55;;;;;;;10.77;7.80;;;;;;;6.73;81.41;97069.23;2153026;81;21058;-83
2022/01/05 12:30:56;;;;;;;10.10;7.70;;;;;;;6.73;81.81;97080.04;2186742;81;21039;-82
2022/01/05 12:33:58;;;;;;;12.93;8.17;;;;;;;6.73;81.81;97080.04;2153767;81;20955;-81
2022/01/05 12:36:58;;;;;;;12.00;8.83;;;;;;;6.68;81.80;97091.71;2183823;81;21067;-82
2022/01/05 12:39:59;;;;;;;10.97;8.30;;;;;;;6.60;81.92;97078.75;2181572;81;21391;-83
2022/01/05 12:43:02;;;;;;;13.20;9.60;;;;;;;6.56;82.44;97083.94;2168402;81;20995;-81
2022/01/05 12:46:04;;;;;;;10.40;9.00;;;;;;;6.51;82.80;97090.42;2162791;81;21034;-81
2022/01/05 12:49:04;;;;;;;13.60;10.33;;;;;;;6.49;83.11;97096.47;2164776;81;21055;-82
2022/01/05 12:52:05;;;;;;;13.83;10.43;;;;;;;6.47;83.36;97096.91;2184370;81;21074;-82
2022/01/05 12:55:07;;;;;;;15.73;10.67;;;;;;;6.39;83.58;97101.66;2185530;81;20975;-82
2022/01/05 12:58:07;;;;;;;17.13;12.47;;;;;;;6.37;84.00;97102.09;2161275;81;20987;-82
2022/01/05 13:01:10;;;;;;;22.23;15.63;;;;;;;6.36;84.20;97101.66;2174341;81;21023;-82
2022/01/05 13:04:10;;;;;;;20.50;13.07;;;;;;;6.31;84.33;97103.38;2172750;81;21418;-81
2022/01/05 13:07:12;;;;;;;16.60;13.40;;;;;;;6.32;84.46;97097.33;2154333;81;21015;-82
2022/01/05 13:10:16;;;;;;;18.27;13.57;;;;;;;6.29;84.98;97099.06;2173831;81;21103;-81
2022/01/05 13:13:17;;;;;;;19.45;13.75;;;;;;;6.22;85.24;97090.42;2182269;81;21079;-82
2022/01/05 13:16:17;;;;;;;24.30;16.60;;;;;;;6.20;85.59;97092.14;2178057;81;20976;-82
2022/01/05 13:19:19;;;;;;;21.23;16.07;;;;;;;6.19;85.76;97093.01;2172927;81;21059;-81
2022/01/05 13:22:20;;;;;;;24.70;15.70;;;;;;;6.24;85.72;97095.17;2166730;81;21074;-81
2022/01/05 13:25:24;;;;;;;24.83;16.47;;;;;;;6.27;86.01;97105.53;2155559;81;21046;-81
2022/01/05 13:28:25;;;;;;;21.73;16.75;;;;;;;6.25;86.03;97096.90;2180460;81;20972;-80
2022/01/05 13:31:25;;;;;;;25.10;17.13;;;;;;;6.25;86.15;97102.08;2172863;81;21110;-81
2022/01/05 13:34:29;;;;;;;25.80;17.13;;;;;;;6.24;86.16;97093.02;2173148;81;20975;-81
2022/01/05 13:37:29;;;;;;;20.00;13.30;;;;;;;6.24;85.99;97096.47;2169913;81;21030;-81
2022/01/05 13:40:30;;;;;;;19.83;13.13;;;;;;;6.23;85.46;97106.39;2189476;81;21015;-81
2022/01/05 13:43:30;;;;;;;18.60;13.70;;;;;;;6.19;85.51;97105.96;2179706;81;21018;-80
2022/01/05 13:46:31;;;;;;;29.13;16.43;;;;;;;6.15;85.70;97122.36;2167632;81;20987;-82
2022/01/05 13:49:31;;;;;;;30.30;17.43;;;;;;;6.14;85.87;97117.17;2188627;81;21503;-81
2022/01/05 13:52:32;;;;;;;30.20;18.03;;;;;;;6.11;85.91;97123.22;2153840;81;21407;-81
2022/01/05 13:55:32;;;;;;;26.20;17.93;;;;;;;6.12;86.04;97125.38;2146020;81;20995;-81
2022/01/05 13:58:33;;;;;;;23.90;16.50;;;;;;;6.12;86.24;97122.79;2161900;81;21400;-82
2022/01/05 14:01:34;;;;;;;23.23;16.53;;;;;;;6.09;86.33;97127.53;2174107;81;21086;-84
2022/01/05 14:04:40;;;;;;;22.70;16.93;;;;;;;6.05;86.68;97122.74;2177333;81;20995;-84
2022/01/05 14:07:43;;;;;;;25.73;16.37;;;;;;;6.04;86.64;97117.56;2166656;81;21019;-84
2022/01/05 14:10:43;;;;;;;23.93;15.83;;;;;;;6.05;86.71;97115.41;2158040;81;20976;-83
2022/01/05 14:13:43;;;;;;;25.00;16.07;;;;;;;6.06;86.70;97125.77;2157944;81;21010;-84